Youngdale, Pennsylvania
Current Conditions -  °F | °C
As of 11:16 AM on Monday 26 Jan 2015 (Local Time) from KIPT Reporting Station
Light Snow Light Snow  
Wind Chill: 13°   Ceiling: 3100
Heat Index: 22°   Visibility: 1.2mi
Dew Point: 17°   Wind: 7mph
Humidity: 82%   Direction: 80°E
Pressure: 29.88"   Gusts: NA
Location:  41.1494°N, 77.3657°W
Report Text: KIPT 261616Z 08006KT 1 1/4SM -SN SCT018 OVC031 M06/M08 A2988 RMK AO2 P0001 T10561083
Loading
Personal Weather Stations






























Interactive Weather Map New forecast layout! Learn more

10-Day Weather Forecast

Advertisements
Track Severe Weather on mobile